Union Ranger — SYMB — position and weather

sailwx.info

Track history (hours):
 
Tides and Currents Weather Stations Pressure Air Temp Water Temp Dewpoint Dewpoint Depression Visibility Wind Speed Wind Dir Waves Ship Positions

Union Ranger

Last reported at 2015-Jun-30 13:22 UTC. Time now 2015-Jul-06 17:52 UTC.
Position N 01°55' E 102°18'.

Length 185 m; draft 10.8 m.

Type: Ship. MMSI: 240070000.

Date/timePositionNaut miles runAvg speedWind from/ knotsBaromVisibWave heightAir tempDewpointWater temp
2015-Jun-30 13:22N 01°55' E 102°18'1011.6
2015-Jun-30 12:32N 01°51' E 102°27'1211.3
2015-Jun-30 11:30N 01°46' E 102°38'1211.5
2015-Jun-30 10:29N 01°40' E 102°48'1312.3
2015-Jun-30 09:27N 01°33' E 102°58'4013.1
2015-Jun-30 06:22N 01°12' E 103°33'1012.1
2015-Jun-30 05:33N 01°09' E 103°43'1212.2
2015-Jun-30 04:33N 01°13' E 103°54'11 1.4
2015-Jun-29 21:09N 01°18' E 104°04'0 0.0
2015-Jun-29 20:30N 01°18' E 104°04'0 0.0
2015-Jun-29 18:30N 01°18' E 104°04'0 0.0
2015-Jun-29 17:12N 01°18' E 104°04'0 0.0
2015-Jun-29 16:30N 01°18' E 104°04'1 1.4
2015-Jun-29 15:33N 01°18' E 104°05'6 5.3
2015-Jun-29 14:29N 01°17' E 104°10'6 5.5
2015-Jun-29 13:29N 01°18' E 104°16'  
Track history (hours):
 
Tides and Currents Weather Stations Pressure Air Temp Water Temp Dewpoint Dewpoint Depression Visibility Wind Speed Wind Dir Waves Ship Positions

Union Ranger

Last reported at 2015-Jun-30 13:22 UTC. Time now 2015-Jul-06 17:52 UTC.
Position N 01°55' E 102°18'.

Length 185 m; draft 10.8 m.

Type: Ship. MMSI: 240070000.

Date/timePositionNaut miles runAvg speedWind from/ knotsBaromVisibWave heightAir tempDewpointWater temp
2015-Jun-30 13:22N 01°55' E 102°18'1011.6
2015-Jun-30 12:32N 01°51' E 102°27'1211.3
2015-Jun-30 11:30N 01°46' E 102°38'1211.5
2015-Jun-30 10:29N 01°40' E 102°48'1312.3
2015-Jun-30 09:27N 01°33' E 102°58'4013.1
2015-Jun-30 06:22N 01°12' E 103°33'1012.1
2015-Jun-30 05:33N 01°09' E 103°43'1212.2
2015-Jun-30 04:33N 01°13' E 103°54'11 1.4
2015-Jun-29 21:09N 01°18' E 104°04'0 0.0
2015-Jun-29 20:30N 01°18' E 104°04'0 0.0
2015-Jun-29 18:30N 01°18' E 104°04'0 0.0
2015-Jun-29 17:12N 01°18' E 104°04'0 0.0
2015-Jun-29 16:30N 01°18' E 104°04'1 1.4
2015-Jun-29 15:33N 01°18' E 104°05'6 5.3
2015-Jun-29 14:29N 01°17' E 104°10'6 5.5
2015-Jun-29 13:29N 01°18' E 104°16'  

Dump ship's entire track history